sensor_id;sensor_type;location;lat;lon;timestamp;temperature;humidity
75022;SHT31;63583;49.976;20.182;2023-04-06T00:00:39;-1.20;72.59
75022;SHT31;63583;49.976;20.182;2023-04-06T00:03:16;-1.19;72.79
75022;SHT31;63583;49.976;20.182;2023-04-06T00:05:41;-1.20;72.89
75022;SHT31;63583;49.976;20.182;2023-04-06T00:08:07;-1.16;72.94
75022;SHT31;63583;49.976;20.182;2023-04-06T00:10:33;-1.17;73.02
75022;SHT31;63583;49.976;20.182;2023-04-06T00:12:59;-1.23;72.97
75022;SHT31;63583;49.976;20.182;2023-04-06T00:15:25;-1.25;72.54
75022;SHT31;63583;49.976;20.182;2023-04-06T00:17:51;-1.27;72.54
75022;SHT31;63583;49.976;20.182;2023-04-06T00:20:17;-1.29;72.41
75022;SHT31;63583;49.976;20.182;2023-04-06T00:22:44;-1.33;73.42
75022;SHT31;63583;49.976;20.182;2023-04-06T00:25:10;-1.33;74.79
75022;SHT31;63583;49.976;20.182;2023-04-06T00:27:37;-1.35;75.37
75022;SHT31;63583;49.976;20.182;2023-04-06T00:30:07;-1.36;74.74
75022;SHT31;63583;49.976;20.182;2023-04-06T00:32:34;-1.42;74.57
75022;SHT31;63583;49.976;20.182;2023-04-06T00:35:04;-1.40;75.63
75022;SHT31;63583;49.976;20.182;2023-04-06T00:37:30;-1.43;75.02
75022;SHT31;63583;49.976;20.182;2023-04-06T00:39:56;-1.43;75.30
75022;SHT31;63583;49.976;20.182;2023-04-06T00:42:22;-1.47;74.93
75022;SHT31;63583;49.976;20.182;2023-04-06T00:44:58;-1.47;74.80
75022;SHT31;63583;49.976;20.182;2023-04-06T00:47:24;-1.50;74.83
75022;SHT31;63583;49.976;20.182;2023-04-06T00:49:51;-1.50;75.03
75022;SHT31;63583;49.976;20.182;2023-04-06T00:52:17;-1.54;75.18
75022;SHT31;63583;49.976;20.182;2023-04-06T00:54:43;-1.56;75.08
75022;SHT31;63583;49.976;20.182;2023-04-06T00:57:11;-1.54;74.94
75022;SHT31;63583;49.976;20.182;2023-04-06T00:59:37;-1.58;74.77
75022;SHT31;63583;49.976;20.182;2023-04-06T01:02:03;-1.60;74.24
75022;SHT31;63583;49.976;20.182;2023-04-06T01:04:28;-1.63;74.26
75022;SHT31;63583;49.976;20.182;2023-04-06T01:06:54;-1.61;74.31
75022;SHT31;63583;49.976;20.182;2023-04-06T01:09:21;-1.61;74.02
75022;SHT31;63583;49.976;20.182;2023-04-06T01:11:47;-1.60;73.99
75022;SHT31;63583;49.976;20.182;2023-04-06T01:14:12;-1.46;73.50
75022;SHT31;63583;49.976;20.182;2023-04-06T01:16:38;-1.53;73.89
75022;SHT31;63583;49.976;20.182;2023-04-06T01:19:08;-1.57;73.83
75022;SHT31;63583;49.976;20.182;2023-04-06T01:21:38;-1.57;74.80
75022;SHT31;63583;49.976;20.182;2023-04-06T01:24:05;-1.47;73.59
75022;SHT31;63583;49.976;20.182;2023-04-06T01:26:32;-1.39;73.10
75022;SHT31;63583;49.976;20.182;2023-04-06T01:28:57;-1.44;73.29
75022;SHT31;63583;49.976;20.182;2023-04-06T01:31:24;-1.39;73.69
75022;SHT31;63583;49.976;20.182;2023-04-06T01:33:50;-1.37;73.92
75022;SHT31;63583;49.976;20.182;2023-04-06T01:36:16;-1.29;73.76
75022;SHT31;63583;49.976;20.182;2023-04-06T01:38:42;-1.33;73.98
75022;SHT31;63583;49.976;20.182;2023-04-06T01:41:08;-1.20;73.51
75022;SHT31;63583;49.976;20.182;2023-04-06T01:43:34;-1.37;74.27
75022;SHT31;63583;49.976;20.182;2023-04-06T01:46:00;-1.51;74.97
75022;SHT31;63583;49.976;20.182;2023-04-06T01:48:29;-1.37;74.91
75022;SHT31;63583;49.976;20.182;2023-04-06T01:50:55;-1.32;75.00
75022;SHT31;63583;49.976;20.182;2023-04-06T01:53:21;-1.30;75.05
75022;SHT31;63583;49.976;20.182;2023-04-06T01:55:46;-1.25;74.76
75022;SHT31;63583;49.976;20.182;2023-04-06T01:58:13;-1.25;74.88
75022;SHT31;63583;49.976;20.182;2023-04-06T02:00:39;-1.25;75.17
75022;SHT31;63583;49.976;20.182;2023-04-06T02:03:04;-1.27;75.29
75022;SHT31;63583;49.976;20.182;2023-04-06T02:05:32;-1.25;75.25
75022;SHT31;63583;49.976;20.182;2023-04-06T02:08:06;-1.23;75.32
75022;SHT31;63583;49.976;20.182;2023-04-06T02:10:32;-1.36;75.77
75022;SHT31;63583;49.976;20.182;2023-04-06T02:12:58;-1.33;76.14
75022;SHT31;63583;49.976;20.182;2023-04-06T02:15:24;-1.42;76.15
75022;SHT31;63583;49.976;20.182;2023-04-06T02:17:51;-1.40;76.44
75022;SHT31;63583;49.976;20.182;2023-04-06T02:20:16;-1.46;76.95
75022;SHT31;63583;49.976;20.182;2023-04-06T02:22:42;-1.78;78.73
75022;SHT31;63583;49.976;20.182;2023-04-06T02:25:08;-1.82;79.16
75022;SHT31;63583;49.976;20.182;2023-04-06T02:27:34;-1.85;79.07
75022;SHT31;63583;49.976;20.182;2023-04-06T02:30:00;-2.03;80.03
75022;SHT31;63583;49.976;20.182;2023-04-06T02:32:25;-2.01;79.97
75022;SHT31;63583;49.976;20.182;2023-04-06T02:34:51;-1.85;79.13
75022;SHT31;63583;49.976;20.182;2023-04-06T02:37:17;-1.64;78.16
75022;SHT31;63583;49.976;20.182;2023-04-06T02:39:42;-1.54;77.38
75022;SHT31;63583;49.976;20.182;2023-04-06T02:42:08;-1.63;77.47
75022;SHT31;63583;49.976;20.182;2023-04-06T02:44:34;-1.71;77.65
75022;SHT31;63583;49.976;20.182;2023-04-06T02:47:00;-1.67;77.75
75022;SHT31;63583;49.976;20.182;2023-04-06T02:49:25;-1.74;77.83
75022;SHT31;63583;49.976;20.182;2023-04-06T02:51:51;-1.71;78.10
75022;SHT31;63583;49.976;20.182;2023-04-06T02:54:17;-1.68;77.74
75022;SHT31;63583;49.976;20.182;2023-04-06T02:56:43;-1.70;77.51
75022;SHT31;63583;49.976;20.182;2023-04-06T02:59:09;-1.70;77.60
75022;SHT31;63583;49.976;20.182;2023-04-06T03:01:34;-1.66;77.59
75022;SHT31;63583;49.976;20.182;2023-04-06T03:04:00;-1.74;77.88
75022;SHT31;63583;49.976;20.182;2023-04-06T03:06:26;-1.66;77.82
75022;SHT31;63583;49.976;20.182;2023-04-06T03:08:51;-1.64;77.31
75022;SHT31;63583;49.976;20.182;2023-04-06T03:11:17;-1.70;77.71
75022;SHT31;63583;49.976;20.182;2023-04-06T03:13:43;-1.77;77.99
75022;SHT31;63583;49.976;20.182;2023-04-06T03:16:08;-1.79;78.33
75022;SHT31;63583;49.976;20.182;2023-04-06T03:18:34;-1.99;78.69
75022;SHT31;63583;49.976;20.182;2023-04-06T03:20:59;-2.01;78.55
75022;SHT31;63583;49.976;20.182;2023-04-06T03:23:28;-1.88;77.97
75022;SHT31;63583;49.976;20.182;2023-04-06T03:25:53;-1.72;77.50
75022;SHT31;63583;49.976;20.182;2023-04-06T03:28:19;-1.77;77.45
75022;SHT31;63583;49.976;20.182;2023-04-06T03:30:45;-1.82;77.90
75022;SHT31;63583;49.976;20.182;2023-04-06T03:33:11;-1.78;77.54
75022;SHT31;63583;49.976;20.182;2023-04-06T03:35:36;-1.89;77.76
75022;SHT31;63583;49.976;20.182;2023-04-06T03:38:03;-1.88;77.89
75022;SHT31;63583;49.976;20.182;2023-04-06T03:40:30;-1.86;77.69
75022;SHT31;63583;49.976;20.182;2023-04-06T03:42:56;-1.91;77.77
75022;SHT31;63583;49.976;20.182;2023-04-06T03:45:21;-2.01;77.77
75022;SHT31;63583;49.976;20.182;2023-04-06T03:47:47;-2.01;77.55
75022;SHT31;63583;49.976;20.182;2023-04-06T03:50:13;-1.85;77.16
75022;SHT31;63583;49.976;20.182;2023-04-06T03:52:38;-1.86;77.05
75022;SHT31;63583;49.976;20.182;2023-04-06T03:55:04;-1.95;77.34
75022;SHT31;63583;49.976;20.182;2023-04-06T03:57:30;-1.96;77.44
75022;SHT31;63583;49.976;20.182;2023-04-06T03:59:56;-2.01;77.23
75022;SHT31;63583;49.976;20.182;2023-04-06T04:02:21;-1.96;77.19
75022;SHT31;63583;49.976;20.182;2023-04-06T04:04:47;-1.98;77.03
75022;SHT31;63583;49.976;20.182;2023-04-06T04:07:13;-2.02;77.57
75022;SHT31;63583;49.976;20.182;2023-04-06T04:09:38;-1.95;76.97
75022;SHT31;63583;49.976;20.182;2023-04-06T04:12:04;-2.02;77.15
75022;SHT31;63583;49.976;20.182;2023-04-06T04:14:30;-1.94;76.80
75022;SHT31;63583;49.976;20.182;2023-04-06T04:16:55;-1.85;76.27
75022;SHT31;63583;49.976;20.182;2023-04-06T04:19:21;-1.91;76.18
75022;SHT31;63583;49.976;20.182;2023-04-06T04:21:46;-1.92;76.32
75022;SHT31;63583;49.976;20.182;2023-04-06T04:24:13;-1.84;76.11
75022;SHT31;63583;49.976;20.182;2023-04-06T04:26:39;-1.86;76.26
75022;SHT31;63583;49.976;20.182;2023-04-06T04:29:05;-1.82;75.86
75022;SHT31;63583;49.976;20.182;2023-04-06T04:31:31;-1.72;75.55
75022;SHT31;63583;49.976;20.182;2023-04-06T04:33:57;-1.74;75.41
75022;SHT31;63583;49.976;20.182;2023-04-06T04:36:23;-1.77;76.07
75022;SHT31;63583;49.976;20.182;2023-04-06T04:38:54;-1.75;75.72
75022;SHT31;63583;49.976;20.182;2023-04-06T04:41:20;-1.81;75.86
75022;SHT31;63583;49.976;20.182;2023-04-06T04:43:45;-1.77;76.08
75022;SHT31;63583;49.976;20.182;2023-04-06T04:46:11;-1.70;75.94
75022;SHT31;63583;49.976;20.182;2023-04-06T04:48:37;-1.66;75.45
75022;SHT31;63583;49.976;20.182;2023-04-06T04:51:04;-1.68;75.17
75022;SHT31;63583;49.976;20.182;2023-04-06T04:53:30;-1.71;75.79
75022;SHT31;63583;49.976;20.182;2023-04-06T04:55:55;-1.54;75.50
75022;SHT31;63583;49.976;20.182;2023-04-06T04:58:21;-1.54;75.98
75022;SHT31;63583;49.976;20.182;2023-04-06T05:00:47;-1.48;75.13
75022;SHT31;63583;49.976;20.182;2023-04-06T05:03:24;-1.48;75.08
75022;SHT31;63583;49.976;20.182;2023-04-06T05:05:51;-1.42;74.76
75022;SHT31;63583;49.976;20.182;2023-04-06T05:08:16;-1.39;74.73
75022;SHT31;63583;49.976;20.182;2023-04-06T05:10:43;-1.37;74.95
75022;SHT31;63583;49.976;20.182;2023-04-06T05:13:09;-1.39;75.43
75022;SHT31;63583;49.976;20.182;2023-04-06T05:15:35;-1.42;74.58
75022;SHT31;63583;49.976;20.182;2023-04-06T05:18:04;-1.40;75.00
75022;SHT31;63583;49.976;20.182;2023-04-06T05:20:30;-1.30;74.80
75022;SHT31;63583;49.976;20.182;2023-04-06T05:22:56;-1.20;74.53
75022;SHT31;63583;49.976;20.182;2023-04-06T05:25:22;-1.21;74.62
75022;SHT31;63583;49.976;20.182;2023-04-06T05:27:47;-1.15;74.57
75022;SHT31;63583;49.976;20.182;2023-04-06T05:30:13;-1.06;74.44
75022;SHT31;63583;49.976;20.182;2023-04-06T05:32:39;-1.10;74.61
75022;SHT31;63583;49.976;20.182;2023-04-06T05:35:06;-1.12;74.64
75022;SHT31;63583;49.976;20.182;2023-04-06T05:37:31;-1.10;74.55
75022;SHT31;63583;49.976;20.182;2023-04-06T05:39:57;-1.16;74.71
75022;SHT31;63583;49.976;20.182;2023-04-06T05:42:22;-1.13;74.73
75022;SHT31;63583;49.976;20.182;2023-04-06T05:44:48;-1.06;74.81
75022;SHT31;63583;49.976;20.182;2023-04-06T05:47:14;-0.98;74.52
75022;SHT31;63583;49.976;20.182;2023-04-06T05:49:41;-0.95;74.11
75022;SHT31;63583;49.976;20.182;2023-04-06T05:52:08;-0.93;74.50
75022;SHT31;63583;49.976;20.182;2023-04-06T05:54:35;-0.85;73.61
75022;SHT31;63583;49.976;20.182;2023-04-06T05:57:02;-0.84;73.96
75022;SHT31;63583;49.976;20.182;2023-04-06T05:59:30;-0.96;74.91
75022;SHT31;63583;49.976;20.182;2023-04-06T06:01:55;-0.79;74.36
75022;SHT31;63583;49.976;20.182;2023-04-06T06:04:21;-0.74;73.93
75022;SHT31;63583;49.976;20.182;2023-04-06T06:06:47;-0.77;73.76
75022;SHT31;63583;49.976;20.182;2023-04-06T06:09:12;-0.72;74.03
75022;SHT31;63583;49.976;20.182;2023-04-06T06:11:38;-0.68;73.33
75022;SHT31;63583;49.976;20.182;2023-04-06T06:14:04;-0.53;73.72
75022;SHT31;63583;49.976;20.182;2023-04-06T06:16:29;-0.57;73.07
75022;SHT31;63583;49.976;20.182;2023-04-06T06:18:55;-0.50;73.12
75022;SHT31;63583;49.976;20.182;2023-04-06T06:21:21;-0.40;72.53
75022;SHT31;63583;49.976;20.182;2023-04-06T06:23:47;-0.43;72.69
75022;SHT31;63583;49.976;20.182;2023-04-06T06:26:14;-0.49;73.53
75022;SHT31;63583;49.976;20.182;2023-04-06T06:28:40;-0.50;73.24
75022;SHT31;63583;49.976;20.182;2023-04-06T06:31:06;-0.49;72.58
75022;SHT31;63583;49.976;20.182;2023-04-06T06:33:32;-0.43;72.59
75022;SHT31;63583;49.976;20.182;2023-04-06T06:35:58;-0.31;72.99
75022;SHT31;63583;49.976;20.182;2023-04-06T06:38:24;-0.29;71.67
75022;SHT31;63583;49.976;20.182;2023-04-06T06:40:49;-0.37;73.22
75022;SHT31;63583;49.976;20.182;2023-04-06T06:43:15;-0.20;71.69
75022;SHT31;63583;49.976;20.182;2023-04-06T06:45:41;-0.09;72.19
75022;SHT31;63583;49.976;20.182;2023-04-06T06:48:07;-0.09;71.51
75022;SHT31;63583;49.976;20.182;2023-04-06T06:50:32;-0.03;71.98
75022;SHT31;63583;49.976;20.182;2023-04-06T06:52:58;0.04;71.02
75022;SHT31;63583;49.976;20.182;2023-04-06T06:55:24;-0.01;70.87
75022;SHT31;63583;49.976;20.182;2023-04-06T06:57:50;0.02;71.23
75022;SHT31;63583;49.976;20.182;2023-04-06T07:00:16;-0.05;69.92
75022;SHT31;63583;49.976;20.182;2023-04-06T07:02:42;0.07;70.17
75022;SHT31;63583;49.976;20.182;2023-04-06T07:05:08;0.14;70.95
75022;SHT31;63583;49.976;20.182;2023-04-06T07:07:34;0.16;70.19
75022;SHT31;63583;49.976;20.182;2023-04-06T07:10:00;0.24;68.96
75022;SHT31;63583;49.976;20.182;2023-04-06T07:12:26;0.29;68.26
75022;SHT31;63583;49.976;20.182;2023-04-06T07:14:52;0.26;68.83
75022;SHT31;63583;49.976;20.182;2023-04-06T07:17:18;0.18;67.64
75022;SHT31;63583;49.976;20.182;2023-04-06T07:19:44;0.28;66.97
75022;SHT31;63583;49.976;20.182;2023-04-06T07:22:10;0.25;68.04
75022;SHT31;63583;49.976;20.182;2023-04-06T07:24:36;0.26;67.00
75022;SHT31;63583;49.976;20.182;2023-04-06T07:27:02;0.36;67.19
75022;SHT31;63583;49.976;20.182;2023-04-06T07:29:28;0.41;66.51
75022;SHT31;63583;49.976;20.182;2023-04-06T07:31:54;0.36;66.64
75022;SHT31;63583;49.976;20.182;2023-04-06T07:34:21;0.25;66.94
75022;SHT31;63583;49.976;20.182;2023-04-06T07:36:46;0.38;67.16
75022;SHT31;63583;49.976;20.182;2023-04-06T07:39:12;0.46;66.61
75022;SHT31;63583;49.976;20.182;2023-04-06T07:41:38;0.62;66.56
75022;SHT31;63583;49.976;20.182;2023-04-06T07:44:03;0.63;66.31
75022;SHT31;63583;49.976;20.182;2023-04-06T07:46:30;0.64;65.36
75022;SHT31;63583;49.976;20.182;2023-04-06T07:48:56;0.70;65.80
75022;SHT31;63583;49.976;20.182;2023-04-06T07:51:22;0.76;66.04
75022;SHT31;63583;49.976;20.182;2023-04-06T07:53:50;0.73;65.17
75022;SHT31;63583;49.976;20.182;2023-04-06T07:56:16;0.90;65.69
75022;SHT31;63583;49.976;20.182;2023-04-06T07:58:41;0.87;63.55
75022;SHT31;63583;49.976;20.182;2023-04-06T08:01:07;0.80;64.34
75022;SHT31;63583;49.976;20.182;2023-04-06T08:03:34;0.90;64.72
75022;SHT31;63583;49.976;20.182;2023-04-06T08:06:00;1.03;65.26
75022;SHT31;63583;49.976;20.182;2023-04-06T08:08:26;1.18;64.07
75022;SHT31;63583;49.976;20.182;2023-04-06T08:10:51;1.17;62.65
75022;SHT31;63583;49.976;20.182;2023-04-06T08:13:17;1.12;62.50
75022;SHT31;63583;49.976;20.182;2023-04-06T08:15:43;1.27;63.10
75022;SHT31;63583;49.976;20.182;2023-04-06T08:18:08;1.36;63.04
75022;SHT31;63583;49.976;20.182;2023-04-06T08:20:35;1.62;63.77
75022;SHT31;63583;49.976;20.182;2023-04-06T08:23:00;1.64;62.12
75022;SHT31;63583;49.976;20.182;2023-04-06T08:25:26;1.58;61.43
75022;SHT31;63583;49.976;20.182;2023-04-06T08:27:52;1.62;62.45
75022;SHT31;63583;49.976;20.182;2023-04-06T08:30:18;1.66;62.62
75022;SHT31;63583;49.976;20.182;2023-04-06T08:32:45;1.67;62.42
75022;SHT31;63583;49.976;20.182;2023-04-06T08:35:11;1.51;62.14
75022;SHT31;63583;49.976;20.182;2023-04-06T08:37:37;1.31;62.02
75022;SHT31;63583;49.976;20.182;2023-04-06T08:40:03;1.24;63.76
75022;SHT31;63583;49.976;20.182;2023-04-06T08:42:32;1.31;64.07
75022;SHT31;63583;49.976;20.182;2023-04-06T08:44:59;1.28;64.00
75022;SHT31;63583;49.976;20.182;2023-04-06T08:47:25;1.27;64.69
75022;SHT31;63583;49.976;20.182;2023-04-06T08:49:52;1.32;64.44
75022;SHT31;63583;49.976;20.182;2023-04-06T08:52:19;1.38;64.74
75022;SHT31;63583;49.976;20.182;2023-04-06T08:54:45;1.34;64.30
75022;SHT31;63583;49.976;20.182;2023-04-06T08:57:11;1.20;63.86
75022;SHT31;63583;49.976;20.182;2023-04-06T08:59:37;1.25;64.98
75022;SHT31;63583;49.976;20.182;2023-04-06T09:02:04;1.14;64.49
75022;SHT31;63583;49.976;20.182;2023-04-06T09:04:32;1.20;65.16
75022;SHT31;63583;49.976;20.182;2023-04-06T09:06:59;1.24;65.26
75022;SHT31;63583;49.976;20.182;2023-04-06T09:09:24;1.25;64.98
75022;SHT31;63583;49.976;20.182;2023-04-06T09:11:51;1.21;64.71
75022;SHT31;63583;49.976;20.182;2023-04-06T09:14:33;1.28;65.24
75022;SHT31;63583;49.976;20.182;2023-04-06T09:16:58;1.15;64.93
75022;SHT31;63583;49.976;20.182;2023-04-06T09:19:24;1.21;64.55
75022;SHT31;63583;49.976;20.182;2023-04-06T09:22:01;1.15;65.98
75022;SHT31;63583;49.976;20.182;2023-04-06T09:24:27;1.08;65.43
75022;SHT31;63583;49.976;20.182;2023-04-06T09:26:52;1.18;66.52
75022;SHT31;63583;49.976;20.182;2023-04-06T09:29:22;1.27;65.58
75022;SHT31;63583;49.976;20.182;2023-04-06T09:31:49;1.21;65.25
75022;SHT31;63583;49.976;20.182;2023-04-06T09:34:22;1.05;65.95
75022;SHT31;63583;49.976;20.182;2023-04-06T09:36:48;1.11;66.16
75022;SHT31;63583;49.976;20.182;2023-04-06T09:39:14;1.17;67.00
75022;SHT31;63583;49.976;20.182;2023-04-06T09:41:39;1.20;67.42
75022;SHT31;63583;49.976;20.182;2023-04-06T09:46:39;1.04;67.68
75022;SHT31;63583;49.976;20.182;2023-04-06T09:49:07;0.97;69.16
75022;SHT31;63583;49.976;20.182;2023-04-06T09:51:45;0.95;69.19
75022;SHT31;63583;49.976;20.182;2023-04-06T09:54:15;0.98;71.10
75022;SHT31;63583;49.976;20.182;2023-04-06T09:56:49;1.12;70.67
75022;SHT31;63583;49.976;20.182;2023-04-06T09:59:50;1.07;70.37
75022;SHT31;63583;49.976;20.182;2023-04-06T10:05:09;0.84;73.13
75022;SHT31;63583;49.976;20.182;2023-04-06T10:07:39;0.94;74.35
75022;SHT31;63583;49.976;20.182;2023-04-06T10:10:06;0.94;73.71
75022;SHT31;63583;49.976;20.182;2023-04-06T10:12:32;0.91;74.53
75022;SHT31;63583;49.976;20.182;2023-04-06T10:14:57;0.95;75.37
75022;SHT31;63583;49.976;20.182;2023-04-06T10:17:23;0.95;75.87
75022;SHT31;63583;49.976;20.182;2023-04-06T10:19:54;1.00;76.17
75022;SHT31;63583;49.976;20.182;2023-04-06T10:22:28;0.84;76.68
75022;SHT31;63583;49.976;20.182;2023-04-06T10:24:55;0.74;76.65
75022;SHT31;63583;49.976;20.182;2023-04-06T10:27:30;0.60;77.56
75022;SHT31;63583;49.976;20.182;2023-04-06T10:30:04;0.53;78.50
75022;SHT31;63583;49.976;20.182;2023-04-06T10:32:37;0.41;78.91
75022;SHT31;63583;49.976;20.182;2023-04-06T10:35:10;0.43;78.74
75022;SHT31;63583;49.976;20.182;2023-04-06T10:38:02;0.56;79.13
75022;SHT31;63583;49.976;20.182;2023-04-06T10:40:28;0.52;78.85
75022;SHT31;63583;49.976;20.182;2023-04-06T10:42:54;0.56;80.54
75022;SHT31;63583;49.976;20.182;2023-04-06T10:45:21;0.70;80.91
75022;SHT31;63583;49.976;20.182;2023-04-06T10:47:47;0.64;80.01
75022;SHT31;63583;49.976;20.182;2023-04-06T10:50:16;0.72;79.95
75022;SHT31;63583;49.976;20.182;2023-04-06T10:52:44;0.59;80.84
75022;SHT31;63583;49.976;20.182;2023-04-06T10:55:10;0.48;82.31
75022;SHT31;63583;49.976;20.182;2023-04-06T10:57:36;0.53;83.08
75022;SHT31;63583;49.976;20.182;2023-04-06T11:00:06;0.35;83.70
75022;SHT31;63583;49.976;20.182;2023-04-06T11:02:32;0.21;84.51
75022;SHT31;63583;49.976;20.182;2023-04-06T11:04:58;0.28;84.91
75022;SHT31;63583;49.976;20.182;2023-04-06T11:07:26;0.39;85.55
75022;SHT31;63583;49.976;20.182;2023-04-06T11:09:52;0.36;85.23
75022;SHT31;63583;49.976;20.182;2023-04-06T11:12:25;0.29;85.52
75022;SHT31;63583;49.976;20.182;2023-04-06T11:15:00;0.26;86.00
75022;SHT31;63583;49.976;20.182;2023-04-06T11:17:35;0.32;86.72
75022;SHT31;63583;49.976;20.182;2023-04-06T11:20:02;0.22;86.82
75022;SHT31;63583;49.976;20.182;2023-04-06T11:22:29;0.29;86.94
75022;SHT31;63583;49.976;20.182;2023-04-06T11:25:05;0.43;87.02
75022;SHT31;63583;49.976;20.182;2023-04-06T11:27:32;0.43;86.09
75022;SHT31;63583;49.976;20.182;2023-04-06T11:30:00;0.46;86.73
75022;SHT31;63583;49.976;20.182;2023-04-06T11:32:26;0.55;87.55
75022;SHT31;63583;49.976;20.182;2023-04-06T11:34:52;0.53;88.02
75022;SHT31;63583;49.976;20.182;2023-04-06T11:37:17;0.57;87.93
75022;SHT31;63583;49.976;20.182;2023-04-06T11:39:48;0.48;88.59
75022;SHT31;63583;49.976;20.182;2023-04-06T11:44:51;0.53;88.20
75022;SHT31;63583;49.976;20.182;2023-04-06T11:47:18;0.43;88.19
75022;SHT31;63583;49.976;20.182;2023-04-06T11:49:44;0.55;88.12
75022;SHT31;63583;49.976;20.182;2023-04-06T11:52:15;0.53;87.74
75022;SHT31;63583;49.976;20.182;2023-04-06T11:54:41;0.43;88.22
75022;SHT31;63583;49.976;20.182;2023-04-06T11:57:08;0.35;89.05
75022;SHT31;63583;49.976;20.182;2023-04-06T11:59:34;0.45;89.60
75022;SHT31;63583;49.976;20.182;2023-04-06T12:02:04;0.53;89.54
75022;SHT31;63583;49.976;20.182;2023-04-06T12:04:31;0.53;90.21
75022;SHT31;63583;49.976;20.182;2023-04-06T12:06:57;0.66;89.96
75022;SHT31;63583;49.976;20.182;2023-04-06T12:09:23;0.59;89.48
75022;SHT31;63583;49.976;20.182;2023-04-06T12:11:48;0.59;89.57
75022;SHT31;63583;49.976;20.182;2023-04-06T12:14:14;0.60;89.41
75022;SHT31;63583;49.976;20.182;2023-04-06T12:16:40;0.56;89.12
75022;SHT31;63583;49.976;20.182;2023-04-06T12:19:06;0.52;89.67
75022;SHT31;63583;49.976;20.182;2023-04-06T12:21:32;0.49;90.10
75022;SHT31;63583;49.976;20.182;2023-04-06T12:23:59;0.43;90.20
75022;SHT31;63583;49.976;20.182;2023-04-06T12:26:25;0.50;90.78
75022;SHT31;63583;49.976;20.182;2023-04-06T12:28:51;0.48;90.54
75022;SHT31;63583;49.976;20.182;2023-04-06T12:31:17;0.46;90.94
75022;SHT31;63583;49.976;20.182;2023-04-06T12:33:44;0.53;91.24
75022;SHT31;63583;49.976;20.182;2023-04-06T12:36:12;0.56;91.63
75022;SHT31;63583;49.976;20.182;2023-04-06T12:38:39;0.55;91.52
75022;SHT31;63583;49.976;20.182;2023-04-06T12:41:06;0.59;91.32
75022;SHT31;63583;49.976;20.182;2023-04-06T12:43:32;0.53;90.87
75022;SHT31;63583;49.976;20.182;2023-04-06T12:45:57;0.57;90.82
75022;SHT31;63583;49.976;20.182;2023-04-06T12:48:25;0.59;90.99
75022;SHT31;63583;49.976;20.182;2023-04-06T12:51:09;0.59;91.08
75022;SHT31;63583;49.976;20.182;2023-04-06T12:53:35;0.73;91.24
75022;SHT31;63583;49.976;20.182;2023-04-06T12:56:02;0.60;91.40
75022;SHT31;63583;49.976;20.182;2023-04-06T12:58:28;0.63;91.73
75022;SHT31;63583;49.976;20.182;2023-04-06T13:00:55;0.63;91.51
75022;SHT31;63583;49.976;20.182;2023-04-06T13:03:23;0.62;92.16
75022;SHT31;63583;49.976;20.182;2023-04-06T13:05:50;0.72;91.85
75022;SHT31;63583;49.976;20.182;2023-04-06T13:08:18;0.79;91.58
75022;SHT31;63583;49.976;20.182;2023-04-06T13:10:47;0.74;91.63
75022;SHT31;63583;49.976;20.182;2023-04-06T13:13:17;0.76;91.85
75022;SHT31;63583;49.976;20.182;2023-04-06T13:15:43;0.74;91.79
75022;SHT31;63583;49.976;20.182;2023-04-06T13:18:09;0.70;91.28
75022;SHT31;63583;49.976;20.182;2023-04-06T13:20:35;0.67;91.54
75022;SHT31;63583;49.976;20.182;2023-04-06T13:23:01;0.60;91.90
75022;SHT31;63583;49.976;20.182;2023-04-06T13:25:27;0.55;91.98
75022;SHT31;63583;49.976;20.182;2023-04-06T13:27:54;0.53;91.64
75022;SHT31;63583;49.976;20.182;2023-04-06T13:30:19;0.67;91.72
75022;SHT31;63583;49.976;20.182;2023-04-06T13:32:45;0.57;91.81
75022;SHT31;63583;49.976;20.182;2023-04-06T13:35:11;0.55;91.63
75022;SHT31;63583;49.976;20.182;2023-04-06T13:37:37;0.63;91.69
75022;SHT31;63583;49.976;20.182;2023-04-06T13:40:03;0.70;91.81
75022;SHT31;63583;49.976;20.182;2023-04-06T13:42:30;0.69;91.13
75022;SHT31;63583;49.976;20.182;2023-04-06T13:44:56;0.72;91.60
75022;SHT31;63583;49.976;20.182;2023-04-06T13:47:22;0.66;91.63
75022;SHT31;63583;49.976;20.182;2023-04-06T13:49:50;0.69;91.72
75022;SHT31;63583;49.976;20.182;2023-04-06T13:52:16;0.73;91.98
75022;SHT31;63583;49.976;20.182;2023-04-06T13:54:42;0.79;91.73
75022;SHT31;63583;49.976;20.182;2023-04-06T13:57:08;0.79;91.81
75022;SHT31;63583;49.976;20.182;2023-04-06T13:59:35;0.67;92.20
75022;SHT31;63583;49.976;20.182;2023-04-06T14:02:02;0.81;91.83
75022;SHT31;63583;49.976;20.182;2023-04-06T14:04:29;0.84;91.69
75022;SHT31;63583;49.976;20.182;2023-04-06T14:06:54;0.91;91.49
75022;SHT31;63583;49.976;20.182;2023-04-06T14:09:20;1.05;91.56
75022;SHT31;63583;49.976;20.182;2023-04-06T14:11:46;0.97;91.18
75022;SHT31;63583;49.976;20.182;2023-04-06T14:14:11;0.80;91.93
75022;SHT31;63583;49.976;20.182;2023-04-06T14:16:38;0.83;91.81
75022;SHT31;63583;49.976;20.182;2023-04-06T14:19:03;0.74;91.98
75022;SHT31;63583;49.976;20.182;2023-04-06T14:21:29;1.01;91.51
75022;SHT31;63583;49.976;20.182;2023-04-06T14:23:55;0.93;91.44
75022;SHT31;63583;49.976;20.182;2023-04-06T14:26:20;0.95;91.40
75022;SHT31;63583;49.976;20.182;2023-04-06T14:28:46;0.94;91.68
75022;SHT31;63583;49.976;20.182;2023-04-06T14:31:13;1.07;91.42
75022;SHT31;63583;49.976;20.182;2023-04-06T14:33:40;1.00;91.45
75022;SHT31;63583;49.976;20.182;2023-04-06T14:36:07;0.97;91.43
75022;SHT31;63583;49.976;20.182;2023-04-06T14:38:33;1.00;91.45
75022;SHT31;63583;49.976;20.182;2023-04-06T14:40:58;0.85;92.26
75022;SHT31;63583;49.976;20.182;2023-04-06T14:43:24;0.93;92.76
75022;SHT31;63583;49.976;20.182;2023-04-06T14:45:51;0.83;92.61
75022;SHT31;63583;49.976;20.182;2023-04-06T14:48:16;0.83;91.96
75022;SHT31;63583;49.976;20.182;2023-04-06T14:50:52;0.77;92.78
75022;SHT31;63583;49.976;20.182;2023-04-06T14:53:25;0.81;92.78
75022;SHT31;63583;49.976;20.182;2023-04-06T14:55:52;0.83;92.57
75022;SHT31;63583;49.976;20.182;2023-04-06T14:58:18;0.95;92.41
75022;SHT31;63583;49.976;20.182;2023-04-06T15:00:44;0.93;92.62
75022;SHT31;63583;49.976;20.182;2023-04-06T15:03:10;0.95;91.86
75022;SHT31;63583;49.976;20.182;2023-04-06T15:05:36;0.94;92.30
75022;SHT31;63583;49.976;20.182;2023-04-06T15:08:02;1.01;92.13
75022;SHT31;63583;49.976;20.182;2023-04-06T15:10:27;0.94;92.60
75022;SHT31;63583;49.976;20.182;2023-04-06T15:12:53;0.88;92.28
75022;SHT31;63583;49.976;20.182;2023-04-06T15:15:19;0.94;92.48
75022;SHT31;63583;49.976;20.182;2023-04-06T15:17:45;1.04;91.93
75022;SHT31;63583;49.976;20.182;2023-04-06T15:20:10;0.93;92.34
75022;SHT31;63583;49.976;20.182;2023-04-06T15:22:36;1.04;92.59
75022;SHT31;63583;49.976;20.182;2023-04-06T15:25:02;0.98;92.26
75022;SHT31;63583;49.976;20.182;2023-04-06T15:27:28;0.88;92.94
75022;SHT31;63583;49.976;20.182;2023-04-06T15:29:53;0.79;93.32